createdAt,value
2018-04-08T00:01:50.800Z,11.99
2018-04-08T00:04:18.432Z,12.01
2018-04-08T00:06:46.032Z,11.95
2018-04-08T00:09:13.689Z,11.97
2018-04-08T00:11:41.283Z,11.93
2018-04-08T00:14:08.912Z,11.95
2018-04-08T00:16:36.520Z,11.92
2018-04-08T00:19:04.118Z,11.89
2018-04-08T00:21:31.737Z,11.86
2018-04-08T00:23:59.350Z,11.81
2018-04-08T00:26:26.968Z,11.81
2018-04-08T00:28:54.561Z,11.73
2018-04-08T00:31:22.206Z,11.78
2018-04-08T00:33:49.823Z,11.77
2018-04-08T00:36:17.411Z,11.74
2018-04-08T00:38:45.020Z,11.75
2018-04-08T00:41:12.624Z,11.74
2018-04-08T00:43:40.249Z,11.80
2018-04-08T00:46:07.841Z,11.73
2018-04-08T00:48:35.486Z,11.70
2018-04-08T00:51:03.090Z,11.68
2018-04-08T00:53:30.687Z,11.64
2018-04-08T00:55:58.314Z,11.58
2018-04-08T00:58:26.420Z,11.44
2018-04-08T01:00:55.726Z,11.45
2018-04-08T01:03:23.322Z,11.39
2018-04-08T01:05:51.105Z,11.37
2018-04-08T01:08:18.725Z,11.37
2018-04-08T01:10:46.320Z,11.33
2018-04-08T01:13:14.164Z,11.30
2018-04-08T01:15:41.759Z,11.26
2018-04-08T01:18:09.367Z,11.21
2018-04-08T01:20:36.999Z,11.09
2018-04-08T01:23:04.617Z,11.00
2018-04-08T01:25:32.249Z,10.97
2018-04-08T01:27:59.900Z,10.91
2018-04-08T01:30:27.528Z,10.95
2018-04-08T01:32:55.124Z,10.92
2018-04-08T01:35:23.130Z,10.88
2018-04-08T01:37:50.734Z,10.77
2018-04-08T01:40:18.337Z,10.81
2018-04-08T01:42:45.976Z,10.81
2018-04-08T01:45:13.573Z,10.71
2018-04-08T01:47:41.199Z,10.67
2018-04-08T01:50:08.788Z,10.63
2018-04-08T01:52:36.672Z,10.48
2018-04-08T01:55:04.263Z,10.54
2018-04-08T01:57:31.852Z,10.45
2018-04-08T01:59:59.474Z,10.38
2018-04-08T02:02:27.073Z,10.41
2018-04-08T02:04:54.701Z,10.36
2018-04-08T02:07:22.304Z,10.30
2018-04-08T02:09:50.300Z,10.23
2018-04-08T02:12:17.894Z,10.24
2018-04-08T02:14:45.489Z,10.27
2018-04-08T02:17:13.130Z,10.32
2018-04-08T02:19:40.728Z,10.29
2018-04-08T02:22:08.340Z,10.20
2018-04-08T02:24:35.924Z,10.29
2018-04-08T02:27:03.726Z,10.29
2018-04-08T02:29:31.321Z,10.36
2018-04-08T02:31:58.933Z,10.32
2018-04-08T02:34:26.571Z,10.34
2018-04-08T02:36:54.172Z,10.39
2018-04-08T02:39:21.805Z,10.21
2018-04-08T02:41:49.507Z,10.07
2018-04-08T02:44:17.129Z,10.01
2018-04-08T02:46:44.734Z,10.01
2018-04-08T02:49:12.335Z,10.01
2018-04-08T02:51:39.950Z,9.94
2018-04-08T02:54:07.558Z,9.97
2018-04-08T02:56:36.100Z,9.87
2018-04-08T02:59:03.730Z,9.85
2018-04-08T03:01:31.513Z,9.92
2018-04-08T03:03:59.105Z,9.88
2018-04-08T03:06:26.723Z,9.85
2018-04-08T03:08:54.335Z,9.84
2018-04-08T03:11:21.926Z,9.83
2018-04-08T03:13:49.548Z,9.88
2018-04-08T03:16:17.133Z,9.84
2018-04-08T03:18:45.059Z,9.87
2018-04-08T03:21:12.652Z,9.92
2018-04-08T03:23:40.240Z,9.90
2018-04-08T03:26:07.854Z,9.88
2018-04-08T03:28:35.443Z,9.89
2018-04-08T03:31:03.054Z,9.94
2018-04-08T03:33:30.644Z,9.94
2018-04-08T03:35:58.489Z,9.91
2018-04-08T03:38:26.086Z,9.88
2018-04-08T03:40:53.673Z,9.76
2018-04-08T03:43:21.298Z,9.59
2018-04-08T03:45:48.888Z,9.64
2018-04-08T03:48:16.496Z,9.51
2018-04-08T03:50:44.087Z,9.67
2018-04-08T03:53:11.710Z,9.66
2018-04-08T03:55:39.295Z,9.61
2018-04-08T03:58:06.881Z,9.68
2018-04-08T04:00:34.494Z,9.72
2018-04-08T04:03:02.132Z,9.78
2018-04-08T04:05:29.723Z,9.83
2018-04-08T04:07:57.320Z,9.77
2018-04-08T04:10:25.146Z,9.79
2018-04-08T04:12:52.743Z,9.84
2018-04-08T04:15:20.336Z,9.79
2018-04-08T04:17:47.947Z,9.69
2018-04-08T04:20:27.350Z,9.69
2018-04-08T04:23:06.620Z,9.73
2018-04-08T04:28:40.525Z,9.61
2018-04-08T04:31:08.124Z,9.59
2018-04-08T04:33:35.732Z,9.63
2018-04-08T04:36:03.315Z,9.54
2018-04-08T04:38:31.087Z,9.52
2018-04-08T04:40:58.688Z,9.46
2018-04-08T04:43:26.284Z,9.25
2018-04-08T04:45:53.900Z,9.29
2018-04-08T04:48:21.505Z,9.31
2018-04-08T04:50:49.115Z,9.41
2018-04-08T04:53:16.719Z,9.44
2018-04-08T04:55:44.337Z,9.38
2018-04-08T04:58:11.931Z,9.36
2018-04-08T05:00:39.832Z,9.39
2018-04-08T05:03:07.424Z,9.33
2018-04-08T05:05:35.021Z,9.32
2018-04-08T05:08:02.649Z,9.32
2018-04-08T05:10:30.233Z,9.14
2018-04-08T05:12:57.895Z,9.13
2018-04-08T05:15:25.610Z,9.24
2018-04-08T05:17:53.701Z,9.29
2018-04-08T05:20:21.304Z,9.32
2018-04-08T05:22:48.901Z,9.41
2018-04-08T05:25:16.517Z,9.42
2018-04-08T05:27:44.110Z,9.53
2018-04-08T05:30:11.724Z,9.51
2018-04-08T05:32:39.311Z,9.56
2018-04-08T05:35:06.947Z,9.62
2018-04-08T05:37:34.540Z,9.74
2018-04-08T05:40:02.152Z,9.75
2018-04-08T05:42:29.760Z,9.84
2018-04-08T05:44:57.360Z,9.91
2018-04-08T05:47:24.982Z,9.97
2018-04-08T05:49:52.577Z,10.01
2018-04-08T05:52:20.332Z,10.04
2018-04-08T05:54:47.925Z,10.02
2018-04-08T05:57:15.519Z,10.11
2018-04-08T05:59:43.160Z,10.03
2018-04-08T06:02:10.777Z,10.04
2018-04-08T06:04:38.413Z,10.02
2018-04-08T06:07:06.005Z,9.98
2018-04-08T06:09:33.973Z,9.89
2018-04-08T06:12:01.574Z,10.01
2018-04-08T06:14:29.180Z,10.04
2018-04-08T06:16:56.800Z,10.19
2018-04-08T06:19:24.404Z,10.16
2018-04-08T06:21:52.385Z,10.33
2018-04-08T06:24:19.995Z,10.28
2018-04-08T06:26:47.595Z,10.40
2018-04-08T06:29:15.212Z,10.49
2018-04-08T06:31:42.820Z,10.51
2018-04-08T06:34:10.476Z,10.60
2018-04-08T06:36:38.073Z,10.73
2018-04-08T06:39:06.403Z,10.63
2018-04-08T06:41:34.036Z,10.75
2018-04-08T06:44:01.662Z,10.73
2018-04-08T06:46:29.300Z,10.85
2018-04-08T06:48:56.907Z,11.02
2018-04-08T06:51:24.522Z,11.12
2018-04-08T06:53:52.171Z,11.16
2018-04-08T06:56:19.825Z,11.09
2018-04-08T06:58:47.842Z,11.30
2018-04-08T07:01:15.504Z,11.38
2018-04-08T07:03:43.108Z,11.46
2018-04-08T07:06:10.736Z,11.50
2018-04-08T07:08:38.408Z,11.61
2018-04-08T07:11:06.456Z,11.81
2018-04-08T07:13:34.055Z,11.94
2018-04-08T07:16:01.660Z,12.04
2018-04-08T07:18:29.302Z,12.14
2018-04-08T07:20:56.914Z,12.22
2018-04-08T07:23:24.561Z,12.37
2018-04-08T07:25:52.177Z,12.43
2018-04-08T07:28:19.778Z,12.60
2018-04-08T07:30:47.405Z,12.59
2018-04-08T07:33:15.001Z,12.76
2018-04-08T07:35:42.622Z,12.74
2018-04-08T07:38:10.224Z,12.75
2018-04-08T07:40:37.827Z,12.80
2018-04-08T07:43:05.444Z,12.78
2018-04-08T07:45:33.119Z,13.01
2018-04-08T07:48:01.484Z,13.11
2018-04-08T07:50:29.087Z,13.04
2018-04-08T07:52:56.733Z,13.21
2018-04-08T07:55:24.337Z,13.24
2018-04-08T07:57:51.941Z,13.23
2018-04-08T08:00:19.565Z,13.32
2018-04-08T08:02:47.160Z,13.26
2018-04-08T08:05:14.878Z,13.24
2018-04-08T08:07:42.488Z,13.25
2018-04-08T08:10:10.267Z,13.45
2018-04-08T08:12:37.874Z,13.55
2018-04-08T08:15:05.464Z,13.63
2018-04-08T08:17:33.085Z,13.68
2018-04-08T08:20:00.688Z,13.78
2018-04-08T08:22:28.314Z,13.85
2018-04-08T08:24:55.918Z,14.15
2018-04-08T08:27:23.566Z,14.19
2018-04-08T08:29:51.173Z,14.24
2018-04-08T08:32:18.770Z,14.28
2018-04-08T08:34:46.396Z,14.46
2018-04-08T08:37:14.003Z,14.64
2018-04-08T08:39:41.632Z,14.60
2018-04-08T08:42:09.236Z,14.62
2018-04-08T08:44:37.112Z,14.51
2018-04-08T08:47:04.717Z,14.51
2018-04-08T08:49:32.317Z,14.61
2018-04-08T08:52:00.012Z,14.65
2018-04-08T08:54:27.624Z,14.90
2018-04-08T08:56:55.244Z,15.07
2018-04-08T08:59:22.871Z,15.06
2018-04-08T09:01:50.764Z,15.06
2018-04-08T09:04:18.362Z,15.20
2018-04-08T09:06:46.016Z,15.26
2018-04-08T09:09:13.621Z,15.32
2018-04-08T09:11:41.232Z,15.33
2018-04-08T09:14:08.856Z,15.38
2018-04-08T09:16:36.457Z,15.55
2018-04-08T09:22:28.409Z,15.88
2018-04-08T09:24:57.784Z,15.90
2018-04-08T09:27:25.387Z,16.05
2018-04-08T09:29:52.980Z,15.97
2018-04-08T09:32:20.600Z,16.13
2018-04-08T09:34:48.199Z,16.16
2018-04-08T09:37:15.836Z,16.18
2018-04-08T09:39:43.436Z,16.35
2018-04-08T09:42:11.103Z,16.53
2018-04-08T09:44:38.704Z,16.59
2018-04-08T09:47:06.316Z,16.72
2018-04-08T09:49:33.945Z,16.85
2018-04-08T09:52:01.540Z,17.02
2018-04-08T09:54:29.178Z,17.14
2018-04-08T09:56:56.793Z,17.18
2018-04-08T09:59:24.448Z,17.23
2018-04-08T10:01:54.849Z,17.22
2018-04-08T10:04:22.470Z,17.18
2018-04-08T10:06:50.072Z,17.41
2018-04-08T10:09:17.953Z,17.37
2018-04-08T10:11:45.562Z,17.36
2018-04-08T10:14:13.174Z,17.59
2018-04-08T10:16:40.831Z,17.42
2018-04-08T10:19:08.436Z,17.47
2018-04-08T10:21:36.090Z,17.46
2018-04-08T10:24:03.698Z,17.65
2018-04-08T10:26:31.346Z,17.86
2018-04-08T10:28:58.941Z,18.07
2018-04-08T10:31:26.609Z,18.13
2018-04-08T10:33:54.230Z,18.57
2018-04-08T10:36:21.840Z,18.11
2018-04-08T10:38:49.500Z,18.74
2018-04-08T10:41:17.096Z,18.91
2018-04-08T10:43:44.698Z,18.77
2018-04-08T10:46:12.317Z,19.41
2018-04-08T10:48:39.930Z,19.64
2018-04-08T10:51:07.809Z,19.43
2018-04-08T10:53:35.399Z,19.64
2018-04-08T10:56:02.987Z,19.65
2018-04-08T10:58:30.604Z,19.74
2018-04-08T11:00:58.210Z,20.24
2018-04-08T11:03:25.825Z,20.84
2018-04-08T11:05:53.423Z,20.85
2018-04-08T11:08:21.081Z,20.82
2018-04-08T11:10:48.674Z,20.74
2018-04-08T11:13:16.343Z,21.07
2018-04-08T11:15:43.975Z,20.55
2018-04-08T11:18:11.581Z,20.51
2018-04-08T11:20:39.252Z,20.12
2018-04-08T11:23:06.842Z,20.09
2018-04-08T11:25:34.844Z,19.91
2018-04-08T11:28:03.948Z,19.87
2018-04-08T11:30:31.545Z,20.13
2018-04-08T11:32:59.175Z,20.27
2018-04-08T11:35:26.794Z,20.50
2018-04-08T11:37:54.412Z,20.59
2018-04-08T11:40:22.440Z,20.78
2018-04-08T11:42:50.057Z,20.70
2018-04-08T11:45:17.658Z,20.97
2018-04-08T11:47:45.460Z,20.83
2018-04-08T11:50:13.084Z,20.91
2018-04-08T11:52:40.694Z,21.26
2018-04-08T11:55:08.329Z,21.45
2018-04-08T11:57:35.927Z,21.68
2018-04-08T12:00:03.595Z,21.76
2018-04-08T12:02:31.191Z,21.65
2018-04-08T12:04:59.026Z,21.61
2018-04-08T12:07:26.621Z,21.94
2018-04-08T12:09:54.215Z,21.90
2018-04-08T12:12:21.845Z,22.08
2018-04-08T12:14:49.460Z,22.18
2018-04-08T12:17:17.109Z,22.41
2018-04-08T12:19:45.030Z,22.29
2018-04-08T12:22:12.815Z,22.37
2018-04-08T12:24:40.420Z,22.39
2018-04-08T12:27:08.019Z,22.52
2018-04-08T12:29:35.645Z,22.44
2018-04-08T12:32:03.444Z,22.65
2018-04-08T12:34:31.064Z,22.99
2018-04-08T12:36:59.759Z,23.16
2018-04-08T12:39:27.405Z,23.24
2018-04-08T12:41:55.020Z,23.23
2018-04-08T12:44:22.636Z,23.80
2018-04-08T12:46:50.248Z,24.31
2018-04-08T12:49:17.855Z,24.91
2018-04-08T12:51:45.698Z,25.77
2018-04-08T12:54:13.294Z,26.26
2018-04-08T12:56:40.884Z,26.50
2018-04-08T12:59:08.537Z,27.22
2018-04-08T13:56:13.511Z,29.06
2018-04-08T13:58:41.136Z,29.14
2018-04-08T14:01:08.720Z,29.77
2018-04-08T14:03:36.328Z,29.91
2018-04-08T14:06:03.916Z,30.16
2018-04-08T14:08:31.536Z,30.72
2018-04-08T14:10:59.127Z,30.74
2018-04-08T14:13:27.168Z,30.23
2018-04-08T14:15:54.762Z,28.78
2018-04-08T14:18:22.364Z,28.13
2018-04-08T14:20:49.976Z,26.97
2018-04-08T14:23:17.566Z,26.54
2018-04-08T14:25:45.196Z,26.15
2018-04-08T14:28:12.826Z,25.46
2018-04-08T14:30:40.455Z,25.27
2018-04-08T14:33:08.056Z,25.11
2018-04-08T14:35:35.702Z,24.62
2018-04-08T14:38:03.385Z,24.32
2018-04-08T14:40:30.986Z,23.98
2018-04-08T14:42:58.611Z,24.02
2018-04-08T14:45:26.207Z,23.97
2018-04-08T14:47:53.939Z,23.84
2018-04-08T14:50:21.532Z,23.70
2018-04-08T14:52:49.124Z,23.52
2018-04-08T14:55:16.751Z,23.42
2018-04-08T14:57:44.348Z,23.08
2018-04-08T15:00:11.982Z,23.08
2018-04-08T15:02:39.569Z,23.10
2018-04-08T15:05:07.456Z,23.13
2018-04-08T15:07:35.052Z,23.07
2018-04-08T15:10:02.676Z,23.06
2018-04-08T15:12:30.304Z,22.96
2018-04-08T15:14:57.901Z,22.96
2018-04-08T15:17:25.536Z,22.65
2018-04-08T15:19:53.132Z,22.84
2018-04-08T15:22:20.898Z,22.76
2018-04-08T15:24:48.489Z,22.72
2018-04-08T15:27:16.100Z,22.61
2018-04-08T15:29:43.789Z,22.56
2018-04-08T15:32:11.389Z,22.57
2018-04-08T15:34:39.013Z,22.49
2018-04-08T15:37:06.620Z,22.53
2018-04-08T15:39:34.419Z,22.53
2018-04-08T15:42:02.047Z,22.50
2018-04-08T15:44:29.642Z,22.37
2018-04-08T15:46:57.255Z,22.31
2018-04-08T15:49:24.856Z,22.37
2018-04-08T15:51:52.492Z,22.30
2018-04-08T15:54:20.088Z,22.33
2018-04-08T15:56:48.079Z,22.29
2018-04-08T15:59:15.684Z,22.34
2018-04-08T16:01:44.236Z,22.34
2018-04-08T16:04:11.893Z,22.41
2018-04-08T16:06:39.483Z,22.48
2018-04-08T16:09:07.105Z,22.70
2018-04-08T16:11:34.700Z,22.72
2018-04-08T16:14:02.326Z,22.95
2018-04-08T16:16:29.922Z,22.97
2018-04-08T16:18:57.520Z,22.86
2018-04-08T16:21:25.147Z,23.01
2018-04-08T16:23:52.732Z,23.06
2018-04-08T16:26:20.349Z,23.01
2018-04-08T16:28:47.931Z,22.97
2018-04-08T16:31:15.731Z,22.76
2018-04-08T16:33:43.326Z,22.60
2018-04-08T16:36:10.924Z,22.55
2018-04-08T16:38:38.546Z,22.27
2018-04-08T16:41:06.250Z,22.05
2018-04-08T16:43:33.871Z,22.02
2018-04-08T16:46:01.455Z,21.98
2018-04-08T16:48:29.106Z,22.09
2018-04-08T16:50:56.699Z,22.26
2018-04-08T16:53:24.302Z,22.57
2018-04-08T16:55:51.912Z,22.53
2018-04-08T16:58:19.517Z,22.18
2018-04-08T17:00:47.145Z,21.60
2018-04-08T17:03:14.741Z,21.45
2018-04-08T17:05:42.552Z,21.37
2018-04-08T17:08:10.208Z,21.21
2018-04-08T17:10:37.784Z,21.02
2018-04-08T17:13:05.419Z,20.76
2018-04-08T17:15:33.052Z,20.66
2018-04-08T17:18:00.684Z,20.34
2018-04-08T17:20:28.284Z,20.34
2018-04-08T17:22:55.905Z,20.19
2018-04-08T17:25:23.606Z,20.05
2018-04-08T17:27:52.468Z,20.05
2018-04-08T17:30:20.478Z,19.84
2018-04-08T17:32:48.095Z,19.73
2018-04-08T17:35:15.769Z,19.55
2018-04-08T17:37:43.357Z,19.44
2018-04-08T17:40:10.969Z,19.42
2018-04-08T17:42:38.608Z,19.37
2018-04-08T17:45:06.213Z,19.11
2018-04-08T17:47:34.660Z,19.11
2018-04-08T17:50:02.284Z,18.98
2018-04-08T17:52:29.873Z,18.93
2018-04-08T17:54:57.628Z,18.83
2018-04-08T17:57:25.230Z,18.79
2018-04-08T17:59:52.840Z,18.73
2018-04-08T18:02:20.446Z,18.52
2018-04-08T18:04:48.255Z,18.44
2018-04-08T18:07:15.845Z,18.41
2018-04-08T18:09:43.436Z,18.32
2018-04-08T18:12:11.053Z,18.33
2018-04-08T18:14:38.643Z,18.22
2018-04-08T18:17:06.262Z,18.16
2018-04-08T18:19:33.857Z,18.06
2018-04-08T18:22:01.495Z,18.03
2018-04-08T18:24:29.098Z,17.99
2018-04-08T18:26:56.696Z,17.96
2018-04-08T18:29:24.312Z,17.86
2018-04-08T18:31:51.908Z,17.87
2018-04-08T18:34:19.533Z,17.77
2018-04-08T18:36:47.138Z,17.70
2018-04-08T18:39:15.015Z,17.73
2018-04-08T18:41:42.621Z,17.73
2018-04-08T18:44:10.241Z,17.68
2018-04-08T18:46:37.867Z,17.64
2018-04-08T18:49:05.461Z,17.58
2018-04-08T18:51:33.085Z,17.50
2018-04-08T18:54:00.680Z,17.36
2018-04-08T18:56:28.554Z,17.29
2018-04-08T18:58:56.156Z,17.23
2018-04-08T19:01:23.747Z,17.19
2018-04-08T19:03:51.355Z,17.16
2018-04-08T19:06:18.953Z,17.17
2018-04-08T19:08:46.588Z,17.09
2018-04-08T19:11:14.188Z,17.04
2018-04-08T19:13:41.976Z,16.91
2018-04-08T19:16:09.576Z,16.81
2018-04-08T19:18:37.185Z,16.74
2018-04-08T19:21:04.839Z,16.68
2018-04-08T19:23:32.426Z,16.66
2018-04-08T19:26:00.038Z,16.58
2018-04-08T19:28:27.639Z,16.50
2018-04-08T19:30:55.276Z,16.42
2018-04-08T19:33:22.875Z,16.31
2018-04-08T19:35:50.467Z,16.34
2018-04-08T19:38:18.088Z,16.27
2018-04-08T19:40:45.704Z,16.19
2018-04-08T19:43:13.313Z,16.15
2018-04-08T19:45:40.933Z,16.11
2018-04-08T19:48:08.562Z,16.04
2018-04-08T19:50:36.158Z,15.90
2018-04-08T19:53:03.778Z,15.84
2018-04-08T19:55:31.372Z,15.84
2018-04-08T19:57:59.011Z,15.87
2018-04-08T20:00:26.613Z,15.76
2018-04-08T20:02:54.268Z,15.67
2018-04-08T20:05:21.856Z,15.70
2018-04-08T20:07:49.466Z,15.57
2018-04-08T20:10:17.086Z,15.57
2018-04-08T20:12:44.673Z,15.57
2018-04-08T20:15:12.299Z,15.54
2018-04-08T20:17:39.890Z,15.51
2018-04-08T20:20:07.500Z,15.43
2018-04-08T20:22:35.112Z,15.48
2018-04-08T20:25:02.703Z,15.41
2018-04-08T20:27:30.348Z,15.33
2018-04-08T20:29:57.940Z,15.32
2018-04-08T20:32:25.745Z,15.31
2018-04-08T20:34:53.345Z,15.19
2018-04-08T20:37:20.933Z,15.14
2018-04-08T20:39:48.555Z,15.09
2018-04-08T20:42:16.144Z,15.09
2018-04-08T20:44:43.775Z,15.02
2018-04-08T20:47:11.400Z,15.02
2018-04-08T20:49:38.998Z,14.92
2018-04-08T20:52:06.639Z,14.87
2018-04-08T20:54:34.229Z,14.88
2018-04-08T20:57:01.876Z,14.85
2018-04-08T20:59:29.472Z,14.78
2018-04-08T21:01:57.088Z,14.76
2018-04-08T21:04:24.682Z,14.77
2018-04-08T21:06:52.615Z,14.73
2018-04-08T21:09:20.224Z,14.67
2018-04-08T21:11:47.813Z,14.56
2018-04-08T21:14:15.436Z,14.59
2018-04-08T21:16:43.035Z,14.54
2018-04-08T21:19:11.024Z,14.53
2018-04-08T21:21:38.628Z,14.52
2018-04-08T21:24:06.226Z,14.53
2018-04-08T21:26:33.851Z,14.46
2018-04-08T21:29:01.458Z,14.52
2018-04-08T21:31:29.341Z,14.43
2018-04-08T21:33:56.932Z,14.40
2018-04-08T21:36:24.544Z,14.44
2018-04-08T21:38:52.160Z,14.39
2018-04-08T21:41:19.756Z,14.34
2018-04-08T21:43:47.373Z,14.16
2018-04-08T21:46:14.959Z,14.14
2018-04-08T21:48:42.773Z,14.02
2018-04-08T21:51:10.370Z,14.00
2018-04-08T21:53:37.999Z,13.88
2018-04-08T21:56:05.613Z,13.74
2018-04-08T21:58:33.205Z,13.72
2018-04-08T22:01:00.856Z,13.73
2018-04-08T22:03:28.447Z,13.71
2018-04-08T22:05:56.207Z,13.72
2018-04-08T22:08:23.821Z,13.72
2018-04-08T22:10:51.413Z,13.70
2018-04-08T22:13:19.094Z,13.65
2018-04-08T22:15:46.699Z,13.65
2018-04-08T22:18:14.293Z,13.61
2018-04-08T22:20:42.032Z,13.56
2018-04-08T22:23:09.625Z,13.50
2018-04-08T22:25:37.472Z,13.36
2018-04-08T22:28:05.072Z,13.29
2018-04-08T22:30:32.932Z,13.19
2018-04-08T22:33:00.528Z,13.10
2018-04-08T22:35:28.126Z,13.10
2018-04-08T22:37:55.745Z,13.04
2018-04-08T22:40:23.344Z,13.10
2018-04-08T22:42:50.981Z,13.08
2018-04-08T22:45:18.576Z,13.09
2018-04-08T22:47:46.238Z,13.14
2018-04-08T22:50:13.835Z,13.11
2018-04-08T22:52:41.438Z,13.06
2018-04-08T22:55:09.102Z,13.03
2018-04-08T22:57:36.713Z,12.99
2018-04-08T23:00:04.366Z,12.94
2018-04-08T23:02:31.985Z,12.87
2018-04-08T23:04:59.854Z,12.76
2018-04-08T23:07:27.460Z,12.66
2018-04-08T23:09:55.090Z,12.64
2018-04-08T23:12:22.781Z,12.57
2018-04-08T23:14:50.397Z,12.56
2018-04-08T23:17:18.044Z,12.57
2018-04-08T23:19:45.667Z,12.60
2018-04-08T23:22:13.556Z,12.54
2018-04-08T23:24:41.181Z,12.54
2018-04-08T23:27:08.825Z,12.52
2018-04-08T23:29:36.481Z,12.53
2018-04-08T23:32:04.104Z,12.43
2018-04-08T23:34:31.810Z,12.31
2018-04-08T23:36:59.438Z,12.24
2018-04-08T23:39:27.109Z,12.16
2018-04-08T23:41:54.734Z,12.19
2018-04-08T23:44:22.365Z,12.12
2018-04-08T23:46:50.016Z,12.06
2018-04-08T23:49:17.649Z,11.99
2018-04-08T23:51:45.298Z,12.01
2018-04-08T23:54:12.928Z,12.00
2018-04-08T23:56:40.732Z,12.03
2018-04-08T23:59:08.357Z,11.97
